sensor_id;sensor_type;location;lat;lon;timestamp;temperature;humidity
18281;DHT22;9266;51.132;17.062;2023-04-05T00:19:08;-0.10;99.90
18281;DHT22;9266;51.132;17.062;2023-04-05T00:21:38;-0.20;51.50
18281;DHT22;9266;51.132;17.062;2023-04-05T00:24:07;-0.20;1.00
18281;DHT22;9266;51.132;17.062;2023-04-05T01:34:42;-0.90;1.00
18281;DHT22;9266;51.132;17.062;2023-04-05T02:41:15;-1.10;1.00
18281;DHT22;9266;51.132;17.062;2023-04-05T03:00:56;-0.80;99.90
18281;DHT22;9266;51.132;17.062;2023-04-05T03:08:24;-0.80;1.00
18281;DHT22;9266;51.132;17.062;2023-04-05T03:45:22;-0.50;1.00
18281;DHT22;9266;51.132;17.062;2023-04-05T03:52:45;-1.30;1.00
18281;DHT22;9266;51.132;17.062;2023-04-05T04:52:37;1.00;99.90
18281;DHT22;9266;51.132;17.062;2023-04-05T04:55:04;1.80;99.90
18281;DHT22;9266;51.132;17.062;2023-04-05T04:57:33;2.10;1.00
18281;DHT22;9266;51.132;17.062;2023-04-05T05:04:57;2.60;99.90
18281;DHT22;9266;51.132;17.062;2023-04-05T05:12:20;1.20;1.00
18281;DHT22;9266;51.132;17.062;2023-04-05T05:14:49;0.70;1.00
18281;DHT22;9266;51.132;17.062;2023-04-05T05:32:03;0.50;99.90
18281;DHT22;9266;51.132;17.062;2023-04-05T05:34:31;0.50;1.00
18281;DHT22;9266;51.132;17.062;2023-04-05T05:44:20;1.30;1.00
18281;DHT22;9266;51.132;17.062;2023-04-05T05:46:47;1.10;1.00
18281;DHT22;9266;51.132;17.062;2023-04-05T05:49:15;0.90;1.00
18281;DHT22;9266;51.132;17.062;2023-04-05T05:51:42;1.40;1.00
18281;DHT22;9266;51.132;17.062;2023-04-05T06:06:34;1.80;1.00
18281;DHT22;9266;51.132;17.062;2023-04-05T06:16:23;2.80;99.90
18281;DHT22;9266;51.132;17.062;2023-04-05T06:21:20;2.40;99.90
18281;DHT22;9266;51.132;17.062;2023-04-05T06:23:48;3.00;99.90
18281;DHT22;9266;51.132;17.062;2023-04-05T06:26:16;2.90;99.90
18281;DHT22;9266;51.132;17.062;2023-04-05T06:28:45;4.00;99.90
18281;DHT22;9266;51.132;17.062;2023-04-05T06:31:14;4.20;99.90
18281;DHT22;9266;51.132;17.062;2023-04-05T06:33:42;5.30;99.90
18281;DHT22;9266;51.132;17.062;2023-04-05T06:36:09;5.40;99.90
18281;DHT22;9266;51.132;17.062;2023-04-05T06:41:05;5.70;1.00
18281;DHT22;9266;51.132;17.062;2023-04-05T06:43:32;5.40;1.00
18281;DHT22;9266;51.132;17.062;2023-04-05T06:45:59;5.10;1.00
18281;DHT22;9266;51.132;17.062;2023-04-05T06:50:57;5.20;1.00
18281;DHT22;9266;51.132;17.062;2023-04-05T06:53:24;4.80;1.00
18281;DHT22;9266;51.132;17.062;2023-04-05T06:55:52;3.90;1.00
18281;DHT22;9266;51.132;17.062;2023-04-05T06:58:20;4.80;1.00
18281;DHT22;9266;51.132;17.062;2023-04-05T07:00:48;4.40;1.00
18281;DHT22;9266;51.132;17.062;2023-04-05T07:03:15;4.10;1.00
18281;DHT22;9266;51.132;17.062;2023-04-05T07:05:49;4.10;1.00
18281;DHT22;9266;51.132;17.062;2023-04-05T07:08:18;3.90;1.00
18281;DHT22;9266;51.132;17.062;2023-04-05T07:10:45;3.70;1.00
18281;DHT22;9266;51.132;17.062;2023-04-05T07:13:12;3.50;1.00
18281;DHT22;9266;51.132;17.062;2023-04-05T07:15:40;3.50;1.00
18281;DHT22;9266;51.132;17.062;2023-04-05T07:18:07;3.40;1.00
18281;DHT22;9266;51.132;17.062;2023-04-05T07:20:35;3.50;1.00
18281;DHT22;9266;51.132;17.062;2023-04-05T07:23:02;3.20;1.00
18281;DHT22;9266;51.132;17.062;2023-04-05T07:25:30;3.20;1.00
18281;DHT22;9266;51.132;17.062;2023-04-05T07:27:57;3.40;1.00
18281;DHT22;9266;51.132;17.062;2023-04-05T07:30:25;3.10;1.00
18281;DHT22;9266;51.132;17.062;2023-04-05T07:32:54;3.30;1.00
18281;DHT22;9266;51.132;17.062;2023-04-05T07:35:21;3.60;1.00
18281;DHT22;9266;51.132;17.062;2023-04-05T07:37:48;3.80;1.00
18281;DHT22;9266;51.132;17.062;2023-04-05T07:40:15;3.90;1.00
18281;DHT22;9266;51.132;17.062;2023-04-05T07:42:42;3.80;1.00
18281;DHT22;9266;51.132;17.062;2023-04-05T07:45:09;3.70;1.00
18281;DHT22;9266;51.132;17.062;2023-04-05T07:47:36;3.70;1.00
18281;DHT22;9266;51.132;17.062;2023-04-05T07:50:06;3.90;1.00
18281;DHT22;9266;51.132;17.062;2023-04-05T07:52:34;4.00;1.00
18281;DHT22;9266;51.132;17.062;2023-04-05T07:55:02;3.90;1.00
18281;DHT22;9266;51.132;17.062;2023-04-05T07:57:29;3.80;1.00
18281;DHT22;9266;51.132;17.062;2023-04-05T07:59:56;3.60;1.00
18281;DHT22;9266;51.132;17.062;2023-04-05T08:02:23;3.30;1.00
18281;DHT22;9266;51.132;17.062;2023-04-05T08:04:50;3.10;1.00
18281;DHT22;9266;51.132;17.062;2023-04-05T08:07:18;3.40;99.90
18281;DHT22;9266;51.132;17.062;2023-04-05T08:09:45;4.00;99.90
18281;DHT22;9266;51.132;17.062;2023-04-05T08:12:12;4.60;99.90
18281;DHT22;9266;51.132;17.062;2023-04-05T08:14:39;5.10;1.00
18281;DHT22;9266;51.132;17.062;2023-04-05T08:17:06;5.40;1.00
18281;DHT22;9266;51.132;17.062;2023-04-05T08:19:33;5.40;1.00
18281;DHT22;9266;51.132;17.062;2023-04-05T08:22:00;5.10;1.00
18281;DHT22;9266;51.132;17.062;2023-04-05T08:24:28;5.30;1.00
18281;DHT22;9266;51.132;17.062;2023-04-05T08:26:55;5.50;1.00
18281;DHT22;9266;51.132;17.062;2023-04-05T08:29:22;5.40;1.00
18281;DHT22;9266;51.132;17.062;2023-04-05T08:31:49;5.20;1.00
18281;DHT22;9266;51.132;17.062;2023-04-05T08:34:16;5.20;1.00
18281;DHT22;9266;51.132;17.062;2023-04-05T08:36:43;5.90;1.00
18281;DHT22;9266;51.132;17.062;2023-04-05T08:39:10;5.90;1.00
18281;DHT22;9266;51.132;17.062;2023-04-05T08:41:41;6.20;1.00
18281;DHT22;9266;51.132;17.062;2023-04-05T08:44:11;6.90;1.00
18281;DHT22;9266;51.132;17.062;2023-04-05T08:46:38;7.90;1.00
18281;DHT22;9266;51.132;17.062;2023-04-05T08:49:06;8.70;1.00
18281;DHT22;9266;51.132;17.062;2023-04-05T08:51:36;9.00;1.00
18281;DHT22;9266;51.132;17.062;2023-04-05T08:54:04;9.30;1.00
18281;DHT22;9266;51.132;17.062;2023-04-05T08:56:32;9.50;1.00
18281;DHT22;9266;51.132;17.062;2023-04-05T08:59:03;9.50;1.00
18281;DHT22;9266;51.132;17.062;2023-04-05T09:01:32;8.80;99.90
18281;DHT22;9266;51.132;17.062;2023-04-05T09:04:01;8.80;1.00
18281;DHT22;9266;51.132;17.062;2023-04-05T09:06:31;8.60;99.90
18281;DHT22;9266;51.132;17.062;2023-04-05T09:08:58;7.20;99.90
18281;DHT22;9266;51.132;17.062;2023-04-05T09:11:26;8.40;99.90
18281;DHT22;9266;51.132;17.062;2023-04-05T09:13:53;8.60;99.90
18281;DHT22;9266;51.132;17.062;2023-04-05T09:16:22;8.70;99.90
18281;DHT22;9266;51.132;17.062;2023-04-05T09:18:49;8.20;99.90
18281;DHT22;9266;51.132;17.062;2023-04-05T09:21:16;8.40;99.90
18281;DHT22;9266;51.132;17.062;2023-04-05T09:23:53;8.40;99.90
18281;DHT22;9266;51.132;17.062;2023-04-05T09:26:22;8.20;99.90
18281;DHT22;9266;51.132;17.062;2023-04-05T09:28:49;8.10;99.90
18281;DHT22;9266;51.132;17.062;2023-04-05T09:31:31;7.80;99.90
18281;DHT22;9266;51.132;17.062;2023-04-05T09:33:59;8.30;99.90
18281;DHT22;9266;51.132;17.062;2023-04-05T09:36:27;8.00;99.90
18281;DHT22;9266;51.132;17.062;2023-04-05T09:39:04;7.70;99.90
18281;DHT22;9266;51.132;17.062;2023-04-05T09:41:32;7.70;99.90
18281;DHT22;9266;51.132;17.062;2023-04-05T09:43:59;7.60;99.90
18281;DHT22;9266;51.132;17.062;2023-04-05T09:46:30;7.40;99.90
18281;DHT22;9266;51.132;17.062;2023-04-05T09:48:59;7.20;99.90
18281;DHT22;9266;51.132;17.062;2023-04-05T09:51:32;7.30;99.90
18281;DHT22;9266;51.132;17.062;2023-04-05T09:54:01;7.70;99.90
18281;DHT22;9266;51.132;17.062;2023-04-05T09:56:30;7.40;99.90
18281;DHT22;9266;51.132;17.062;2023-04-05T09:58:58;10.20;99.90
18281;DHT22;9266;51.132;17.062;2023-04-05T10:01:26;8.80;99.90
18281;DHT22;9266;51.132;17.062;2023-04-05T10:03:56;8.40;99.90
18281;DHT22;9266;51.132;17.062;2023-04-05T10:06:34;8.20;99.90
18281;DHT22;9266;51.132;17.062;2023-04-05T10:09:03;8.40;99.90
18281;DHT22;9266;51.132;17.062;2023-04-05T10:11:31;8.10;99.90
18281;DHT22;9266;51.132;17.062;2023-04-05T10:14:01;8.10;99.90
18281;DHT22;9266;51.132;17.062;2023-04-05T10:16:31;8.40;99.90
18281;DHT22;9266;51.132;17.062;2023-04-05T10:19:00;8.80;99.90
18281;DHT22;9266;51.132;17.062;2023-04-05T10:21:34;8.80;99.90
18281;DHT22;9266;51.132;17.062;2023-04-05T10:24:08;8.40;99.90
18281;DHT22;9266;51.132;17.062;2023-04-05T10:26:44;8.40;99.90
18281;DHT22;9266;51.132;17.062;2023-04-05T10:29:18;8.20;99.90
18281;DHT22;9266;51.132;17.062;2023-04-05T10:31:50;8.30;99.90
18281;DHT22;9266;51.132;17.062;2023-04-05T10:34:30;8.10;99.90
18281;DHT22;9266;51.132;17.062;2023-04-05T10:37:00;7.50;99.90
18281;DHT22;9266;51.132;17.062;2023-04-05T10:39:28;7.50;99.90
18281;DHT22;9266;51.132;17.062;2023-04-05T10:42:00;7.50;99.90
18281;DHT22;9266;51.132;17.062;2023-04-05T10:44:30;7.60;99.90
18281;DHT22;9266;51.132;17.062;2023-04-05T10:46:59;8.30;99.90
18281;DHT22;9266;51.132;17.062;2023-04-05T10:49:42;8.60;99.90
18281;DHT22;9266;51.132;17.062;2023-04-05T10:52:12;8.70;99.90
18281;DHT22;9266;51.132;17.062;2023-04-05T10:54:40;8.90;99.90
18281;DHT22;9266;51.132;17.062;2023-04-05T10:57:08;8.90;99.90
18281;DHT22;9266;51.132;17.062;2023-04-05T10:59:41;8.80;99.90
18281;DHT22;9266;51.132;17.062;2023-04-05T11:02:08;8.50;99.90
18281;DHT22;9266;51.132;17.062;2023-04-05T11:04:36;8.40;99.90
18281;DHT22;9266;51.132;17.062;2023-04-05T11:07:12;8.40;99.90
18281;DHT22;9266;51.132;17.062;2023-04-05T11:09:53;8.10;99.90
18281;DHT22;9266;51.132;17.062;2023-04-05T11:15:31;7.00;99.90
18281;DHT22;9266;51.132;17.062;2023-04-05T11:18:05;7.40;99.90
18281;DHT22;9266;51.132;17.062;2023-04-05T11:20:46;8.00;99.90
18281;DHT22;9266;51.132;17.062;2023-04-05T11:23:16;10.50;99.90
18281;DHT22;9266;51.132;17.062;2023-04-05T11:25:49;8.60;99.90
18281;DHT22;9266;51.132;17.062;2023-04-05T11:28:37;8.40;99.90
18281;DHT22;9266;51.132;17.062;2023-04-05T11:31:12;8.70;99.90
18281;DHT22;9266;51.132;17.062;2023-04-05T11:33:58;8.90;99.90
18281;DHT22;9266;51.132;17.062;2023-04-05T11:36:39;9.10;99.90
18281;DHT22;9266;51.132;17.062;2023-04-05T11:39:24;8.50;99.90
18281;DHT22;9266;51.132;17.062;2023-04-05T11:41:58;8.70;99.90
18281;DHT22;9266;51.132;17.062;2023-04-05T11:44:26;8.00;99.90
18281;DHT22;9266;51.132;17.062;2023-04-05T11:46:54;8.10;99.90
18281;DHT22;9266;51.132;17.062;2023-04-05T11:49:22;8.00;99.90
18281;DHT22;9266;51.132;17.062;2023-04-05T11:51:50;8.20;99.90
18281;DHT22;9266;51.132;17.062;2023-04-05T11:54:32;8.20;99.90
18281;DHT22;9266;51.132;17.062;2023-04-05T11:56:59;8.00;99.90
18281;DHT22;9266;51.132;17.062;2023-04-05T11:59:30;8.20;99.90
18281;DHT22;9266;51.132;17.062;2023-04-05T12:01:59;8.50;99.90
18281;DHT22;9266;51.132;17.062;2023-04-05T12:04:27;8.80;99.90
18281;DHT22;9266;51.132;17.062;2023-04-05T12:07:14;9.40;99.90
18281;DHT22;9266;51.132;17.062;2023-04-05T12:10:00;9.70;99.90
18281;DHT22;9266;51.132;17.062;2023-04-05T12:12:31;10.10;99.90
18281;DHT22;9266;51.132;17.062;2023-04-05T12:14:59;10.00;99.90
18281;DHT22;9266;51.132;17.062;2023-04-05T12:17:41;9.40;99.90
18281;DHT22;9266;51.132;17.062;2023-04-05T12:20:10;9.10;99.90
18281;DHT22;9266;51.132;17.062;2023-04-05T12:22:40;8.60;99.90
18281;DHT22;9266;51.132;17.062;2023-04-05T12:25:09;8.80;99.90
18281;DHT22;9266;51.132;17.062;2023-04-05T12:27:37;9.20;99.90
18281;DHT22;9266;51.132;17.062;2023-04-05T12:30:13;9.20;99.90
18281;DHT22;9266;51.132;17.062;2023-04-05T12:32:50;8.30;99.90
18281;DHT22;9266;51.132;17.062;2023-04-05T12:35:19;8.10;99.90
18281;DHT22;9266;51.132;17.062;2023-04-05T12:37:47;7.90;99.90
18281;DHT22;9266;51.132;17.062;2023-04-05T12:40:20;7.60;99.90
18281;DHT22;9266;51.132;17.062;2023-04-05T12:42:49;7.30;99.90
18281;DHT22;9266;51.132;17.062;2023-04-05T12:45:16;7.50;99.90
18281;DHT22;9266;51.132;17.062;2023-04-05T12:47:48;7.70;99.90
18281;DHT22;9266;51.132;17.062;2023-04-05T12:50:17;7.80;99.90
18281;DHT22;9266;51.132;17.062;2023-04-05T12:52:58;8.20;99.90
18281;DHT22;9266;51.132;17.062;2023-04-05T12:55:28;7.60;99.90
18281;DHT22;9266;51.132;17.062;2023-04-05T12:57:56;7.20;99.90
18281;DHT22;9266;51.132;17.062;2023-04-05T13:00:27;7.10;99.90
18281;DHT22;9266;51.132;17.062;2023-04-05T13:02:55;7.30;99.90
18281;DHT22;9266;51.132;17.062;2023-04-05T13:05:23;7.50;99.90
18281;DHT22;9266;51.132;17.062;2023-04-05T13:07:51;7.00;99.90
18281;DHT22;9266;51.132;17.062;2023-04-05T13:10:18;7.10;99.90
18281;DHT22;9266;51.132;17.062;2023-04-05T13:12:47;6.90;99.90
18281;DHT22;9266;51.132;17.062;2023-04-05T13:15:16;6.70;99.90
18281;DHT22;9266;51.132;17.062;2023-04-05T13:17:44;6.40;99.90
18281;DHT22;9266;51.132;17.062;2023-04-05T13:20:14;5.60;1.00
18281;DHT22;9266;51.132;17.062;2023-04-05T13:22:42;4.90;1.00
18281;DHT22;9266;51.132;17.062;2023-04-05T13:25:09;4.40;99.90
18281;DHT22;9266;51.132;17.062;2023-04-05T13:27:36;4.00;1.00
18281;DHT22;9266;51.132;17.062;2023-04-05T13:30:05;4.00;17.70
18281;DHT22;9266;51.132;17.062;2023-04-05T13:32:33;4.10;1.00
18281;DHT22;9266;51.132;17.062;2023-04-05T13:35:00;3.90;1.00
18281;DHT22;9266;51.132;17.062;2023-04-05T13:37:27;3.80;99.90
18281;DHT22;9266;51.132;17.062;2023-04-05T13:39:54;3.60;1.00
18281;DHT22;9266;51.132;17.062;2023-04-05T13:42:22;3.40;99.90
18281;DHT22;9266;51.132;17.062;2023-04-05T13:44:49;3.40;1.00
18281;DHT22;9266;51.132;17.062;2023-04-05T13:47:17;3.50;1.00
18281;DHT22;9266;51.132;17.062;2023-04-05T13:49:45;3.50;91.40
18281;DHT22;9266;51.132;17.062;2023-04-05T13:52:12;3.80;99.90
18281;DHT22;9266;51.132;17.062;2023-04-05T13:54:39;4.00;99.90
18281;DHT22;9266;51.132;17.062;2023-04-05T13:57:06;4.40;1.00
18281;DHT22;9266;51.132;17.062;2023-04-05T13:59:33;4.60;1.00
18281;DHT22;9266;51.132;17.062;2023-04-05T14:02:00;4.80;99.90
18281;DHT22;9266;51.132;17.062;2023-04-05T14:04:30;5.00;1.00
18281;DHT22;9266;51.132;17.062;2023-04-05T14:06:57;5.20;99.90
18281;DHT22;9266;51.132;17.062;2023-04-05T14:09:24;5.40;99.90
18281;DHT22;9266;51.132;17.062;2023-04-05T14:11:51;5.50;39.60
18281;DHT22;9266;51.132;17.062;2023-04-05T14:14:18;5.70;1.00
18281;DHT22;9266;51.132;17.062;2023-04-05T14:16:45;5.90;99.90
18281;DHT22;9266;51.132;17.062;2023-04-05T14:19:12;5.80;1.00
18281;DHT22;9266;51.132;17.062;2023-04-05T14:21:42;5.80;1.00
18281;DHT22;9266;51.132;17.062;2023-04-05T14:24:09;5.80;1.00
18281;DHT22;9266;51.132;17.062;2023-04-05T14:26:36;5.70;1.00
18281;DHT22;9266;51.132;17.062;2023-04-05T14:29:03;5.80;1.00
18281;DHT22;9266;51.132;17.062;2023-04-05T14:31:30;5.70;99.90
18281;DHT22;9266;51.132;17.062;2023-04-05T14:33:57;5.70;99.90
18281;DHT22;9266;51.132;17.062;2023-04-05T14:36:25;5.50;72.00
18281;DHT22;9266;51.132;17.062;2023-04-05T14:38:54;5.50;99.90
18281;DHT22;9266;51.132;17.062;2023-04-05T14:41:21;5.50;15.90
18281;DHT22;9266;51.132;17.062;2023-04-05T14:43:48;5.50;5.30
18281;DHT22;9266;51.132;17.062;2023-04-05T14:46:16;5.60;4.60
18281;DHT22;9266;51.132;17.062;2023-04-05T14:48:43;5.60;1.00
18281;DHT22;9266;51.132;17.062;2023-04-05T14:51:10;5.60;1.00
18281;DHT22;9266;51.132;17.062;2023-04-05T14:53:38;5.70;1.00
18281;DHT22;9266;51.132;17.062;2023-04-05T14:56:07;5.70;1.00
18281;DHT22;9266;51.132;17.062;2023-04-05T14:58:35;5.70;1.00
18281;DHT22;9266;51.132;17.062;2023-04-05T15:01:02;5.80;1.00
18281;DHT22;9266;51.132;17.062;2023-04-05T15:03:29;5.80;1.00
18281;DHT22;9266;51.132;17.062;2023-04-05T15:05:57;5.80;1.00
18281;DHT22;9266;51.132;17.062;2023-04-05T15:08:24;5.90;1.00
18281;DHT22;9266;51.132;17.062;2023-04-05T15:10:51;5.80;1.00
18281;DHT22;9266;51.132;17.062;2023-04-05T15:13:19;5.80;99.90
18281;DHT22;9266;51.132;17.062;2023-04-05T15:15:48;5.80;99.90
18281;DHT22;9266;51.132;17.062;2023-04-05T15:18:15;5.80;1.00
18281;DHT22;9266;51.132;17.062;2023-04-05T15:20:42;6.00;1.00
18281;DHT22;9266;51.132;17.062;2023-04-05T15:23:09;6.10;99.90
18281;DHT22;9266;51.132;17.062;2023-04-05T15:25:36;6.10;99.90
18281;DHT22;9266;51.132;17.062;2023-04-05T15:28:04;6.20;99.90
18281;DHT22;9266;51.132;17.062;2023-04-05T15:30:33;6.30;99.90
18281;DHT22;9266;51.132;17.062;2023-04-05T15:33:01;6.20;99.90
18281;DHT22;9266;51.132;17.062;2023-04-05T15:35:28;5.60;99.90
18281;DHT22;9266;51.132;17.062;2023-04-05T15:37:55;6.30;99.90
18281;DHT22;9266;51.132;17.062;2023-04-05T15:40:23;6.20;56.80
18281;DHT22;9266;51.132;17.062;2023-04-05T15:42:50;6.20;85.60
18281;DHT22;9266;51.132;17.062;2023-04-05T15:45:17;6.10;5.90
18281;DHT22;9266;51.132;17.062;2023-04-05T15:47:45;6.20;46.30
18281;DHT22;9266;51.132;17.062;2023-04-05T15:50:12;6.20;9.50
18281;DHT22;9266;51.132;17.062;2023-04-05T15:52:39;6.30;38.10
18281;DHT22;9266;51.132;17.062;2023-04-05T15:55:07;6.30;13.40
18281;DHT22;9266;51.132;17.062;2023-04-05T15:57:34;6.40;3.50
18281;DHT22;9266;51.132;17.062;2023-04-05T16:00:01;6.40;1.00
18281;DHT22;9266;51.132;17.062;2023-04-05T16:02:29;6.30;1.00
18281;DHT22;9266;51.132;17.062;2023-04-05T16:04:58;6.10;1.00
18281;DHT22;9266;51.132;17.062;2023-04-05T16:07:25;6.00;1.00
18281;DHT22;9266;51.132;17.062;2023-04-05T16:09:52;6.10;1.00
18281;DHT22;9266;51.132;17.062;2023-04-05T16:12:19;5.90;1.00
18281;DHT22;9266;51.132;17.062;2023-04-05T16:14:46;5.90;1.00
18281;DHT22;9266;51.132;17.062;2023-04-05T16:17:13;5.80;1.00
18281;DHT22;9266;51.132;17.062;2023-04-05T16:19:40;5.80;1.00
18281;DHT22;9266;51.132;17.062;2023-04-05T16:22:10;5.80;1.00
18281;DHT22;9266;51.132;17.062;2023-04-05T16:24:38;5.80;1.00
18281;DHT22;9266;51.132;17.062;2023-04-05T16:27:05;5.80;1.00
18281;DHT22;9266;51.132;17.062;2023-04-05T16:29:32;5.70;1.00
18281;DHT22;9266;51.132;17.062;2023-04-05T16:31:59;5.70;1.00
18281;DHT22;9266;51.132;17.062;2023-04-05T16:34:26;5.60;1.00
18281;DHT22;9266;51.132;17.062;2023-04-05T16:36:53;5.70;1.00
18281;DHT22;9266;51.132;17.062;2023-04-05T16:39:21;5.70;1.00
18281;DHT22;9266;51.132;17.062;2023-04-05T16:41:48;5.70;1.00
18281;DHT22;9266;51.132;17.062;2023-04-05T16:44:15;5.60;1.00
18281;DHT22;9266;51.132;17.062;2023-04-05T16:46:42;5.60;1.00
18281;DHT22;9266;51.132;17.062;2023-04-05T16:49:10;5.70;1.00
18281;DHT22;9266;51.132;17.062;2023-04-05T16:51:40;5.70;1.00
18281;DHT22;9266;51.132;17.062;2023-04-05T16:54:07;5.70;1.00
18281;DHT22;9266;51.132;17.062;2023-04-05T16:56:35;5.70;1.00
18281;DHT22;9266;51.132;17.062;2023-04-05T16:59:02;5.70;1.00
18281;DHT22;9266;51.132;17.062;2023-04-05T17:01:29;6.60;1.00
18281;DHT22;9266;51.132;17.062;2023-04-05T17:03:57;5.80;1.00
18281;DHT22;9266;51.132;17.062;2023-04-05T17:06:25;5.80;1.00
18281;DHT22;9266;51.132;17.062;2023-04-05T17:08:53;5.90;1.00
18281;DHT22;9266;51.132;17.062;2023-04-05T17:11:20;5.90;1.00
18281;DHT22;9266;51.132;17.062;2023-04-05T17:13:48;5.90;1.00
18281;DHT22;9266;51.132;17.062;2023-04-05T17:16:15;5.80;1.00
18281;DHT22;9266;51.132;17.062;2023-04-05T17:18:42;5.70;1.00
18281;DHT22;9266;51.132;17.062;2023-04-05T17:21:10;5.60;1.00
18281;DHT22;9266;51.132;17.062;2023-04-05T17:23:38;5.50;1.00
18281;DHT22;9266;51.132;17.062;2023-04-05T17:26:05;5.40;1.00
18281;DHT22;9266;51.132;17.062;2023-04-05T17:28:32;5.30;1.00
18281;DHT22;9266;51.132;17.062;2023-04-05T17:31:01;5.20;1.00
18281;DHT22;9266;51.132;17.062;2023-04-05T17:33:28;5.00;1.00
18281;DHT22;9266;51.132;17.062;2023-04-05T17:35:55;4.80;1.00
18281;DHT22;9266;51.132;17.062;2023-04-05T17:38:22;4.70;1.00
18281;DHT22;9266;51.132;17.062;2023-04-05T17:40:52;4.40;42.90
18281;DHT22;9266;51.132;17.062;2023-04-05T17:43:21;4.30;95.80
18281;DHT22;9266;51.132;17.062;2023-04-05T17:45:48;4.20;99.90
18281;DHT22;9266;51.132;17.062;2023-04-05T17:48:17;4.00;99.90
18281;DHT22;9266;51.132;17.062;2023-04-05T17:50:44;3.90;99.90
18281;DHT22;9266;51.132;17.062;2023-04-05T17:53:13;3.80;99.90
18281;DHT22;9266;51.132;17.062;2023-04-05T17:55:40;3.90;99.90
18281;DHT22;9266;51.132;17.062;2023-04-05T17:58:07;3.80;99.90
18281;DHT22;9266;51.132;17.062;2023-04-05T18:00:35;3.70;99.90
18281;DHT22;9266;51.132;17.062;2023-04-05T18:03:02;3.60;99.90
18281;DHT22;9266;51.132;17.062;2023-04-05T18:05:30;3.40;99.90
18281;DHT22;9266;51.132;17.062;2023-04-05T18:07:57;3.40;1.00
18281;DHT22;9266;51.132;17.062;2023-04-05T18:10:24;3.30;1.00
18281;DHT22;9266;51.132;17.062;2023-04-05T18:12:51;3.40;1.00
18281;DHT22;9266;51.132;17.062;2023-04-05T18:15:18;3.50;1.00
18281;DHT22;9266;51.132;17.062;2023-04-05T18:17:45;3.50;1.00
18281;DHT22;9266;51.132;17.062;2023-04-05T18:20:12;3.50;49.20
18281;DHT22;9266;51.132;17.062;2023-04-05T18:22:40;3.40;99.90
18281;DHT22;9266;51.132;17.062;2023-04-05T18:25:08;3.40;99.90
18281;DHT22;9266;51.132;17.062;2023-04-05T18:27:36;3.30;1.00
18281;DHT22;9266;51.132;17.062;2023-04-05T18:30:04;5.00;1.00
18281;DHT22;9266;51.132;17.062;2023-04-05T18:32:31;3.10;1.00
18281;DHT22;9266;51.132;17.062;2023-04-05T18:34:58;3.10;74.00
18281;DHT22;9266;51.132;17.062;2023-04-05T18:37:25;3.10;99.90
18281;DHT22;9266;51.132;17.062;2023-04-05T18:39:54;4.70;1.00
18281;DHT22;9266;51.132;17.062;2023-04-05T18:42:21;3.00;1.00
18281;DHT22;9266;51.132;17.062;2023-04-05T18:44:48;2.90;99.90
18281;DHT22;9266;51.132;17.062;2023-04-05T18:47:15;2.80;99.90
18281;DHT22;9266;51.132;17.062;2023-04-05T18:49:42;2.80;1.00
18281;DHT22;9266;51.132;17.062;2023-04-05T18:52:09;2.70;1.00
18281;DHT22;9266;51.132;17.062;2023-04-05T18:54:36;2.60;99.90
18281;DHT22;9266;51.132;17.062;2023-04-05T18:57:05;1.60;99.90
18281;DHT22;9266;51.132;17.062;2023-04-05T18:59:32;2.50;1.00
18281;DHT22;9266;51.132;17.062;2023-04-05T19:01:59;2.30;1.00
18281;DHT22;9266;51.132;17.062;2023-04-05T19:04:29;2.30;99.90
18281;DHT22;9266;51.132;17.062;2023-04-05T19:06:56;2.30;1.00
18281;DHT22;9266;51.132;17.062;2023-04-05T19:09:23;2.40;1.00
18281;DHT22;9266;51.132;17.062;2023-04-05T19:11:51;2.30;1.00
18281;DHT22;9266;51.132;17.062;2023-04-05T19:14:20;2.40;1.00
18281;DHT22;9266;51.132;17.062;2023-04-05T19:16:48;2.30;1.00
18281;DHT22;9266;51.132;17.062;2023-04-05T19:19:15;2.20;1.00
18281;DHT22;9266;51.132;17.062;2023-04-05T19:21:43;2.20;99.90
18281;DHT22;9266;51.132;17.062;2023-04-05T19:24:10;2.10;99.90
18281;DHT22;9266;51.132;17.062;2023-04-05T19:26:39;2.00;1.00
18281;DHT22;9266;51.132;17.062;2023-04-05T19:29:07;2.00;1.00
18281;DHT22;9266;51.132;17.062;2023-04-05T19:31:36;2.10;1.00
18281;DHT22;9266;51.132;17.062;2023-04-05T19:34:05;2.10;1.00
18281;DHT22;9266;51.132;17.062;2023-04-05T19:36:33;1.90;1.00
18281;DHT22;9266;51.132;17.062;2023-04-05T19:39:01;1.90;1.00
18281;DHT22;9266;51.132;17.062;2023-04-05T19:41:28;1.80;1.00
18281;DHT22;9266;51.132;17.062;2023-04-05T19:43:57;1.90;1.00
18281;DHT22;9266;51.132;17.062;2023-04-05T19:46:26;1.80;1.00
18281;DHT22;9266;51.132;17.062;2023-04-05T19:48:55;1.70;99.90
18281;DHT22;9266;51.132;17.062;2023-04-05T19:51:27;1.60;1.00
18281;DHT22;9266;51.132;17.062;2023-04-05T19:53:54;1.50;1.00
18281;DHT22;9266;51.132;17.062;2023-04-05T19:56:23;1.40;1.00
18281;DHT22;9266;51.132;17.062;2023-04-05T19:58:55;1.50;97.10
18281;DHT22;9266;51.132;17.062;2023-04-05T20:01:33;1.40;99.90
18281;DHT22;9266;51.132;17.062;2023-04-05T20:04:09;1.40;99.90
18281;DHT22;9266;51.132;17.062;2023-04-05T20:06:37;1.50;1.00
18281;DHT22;9266;51.132;17.062;2023-04-05T20:09:05;1.40;1.00
18281;DHT22;9266;51.132;17.062;2023-04-05T20:11:33;1.30;1.00
18281;DHT22;9266;51.132;17.062;2023-04-05T20:14:00;1.30;1.00
18281;DHT22;9266;51.132;17.062;2023-04-05T20:16:30;1.30;6.40
18281;DHT22;9266;51.132;17.062;2023-04-05T20:19:02;1.20;99.90
18281;DHT22;9266;51.132;17.062;2023-04-05T20:21:30;1.20;99.90
18281;DHT22;9266;51.132;17.062;2023-04-05T20:23:57;1.20;99.90
18281;DHT22;9266;51.132;17.062;2023-04-05T20:26:27;1.30;99.90
18281;DHT22;9266;51.132;17.062;2023-04-05T20:28:55;1.20;99.90
18281;DHT22;9266;51.132;17.062;2023-04-05T20:31:23;1.30;99.90
18281;DHT22;9266;51.132;17.062;2023-04-05T20:33:52;1.30;99.90
18281;DHT22;9266;51.132;17.062;2023-04-05T20:36:22;1.20;99.90
18281;DHT22;9266;51.132;17.062;2023-04-05T20:38:49;1.20;99.90
18281;DHT22;9266;51.132;17.062;2023-04-05T20:41:18;1.20;99.90
18281;DHT22;9266;51.132;17.062;2023-04-05T20:43:45;1.20;99.90
18281;DHT22;9266;51.132;17.062;2023-04-05T20:46:12;1.20;99.90
18281;DHT22;9266;51.132;17.062;2023-04-05T20:48:40;1.20;99.90
18281;DHT22;9266;51.132;17.062;2023-04-05T20:51:08;1.20;99.90
18281;DHT22;9266;51.132;17.062;2023-04-05T20:53:37;1.10;99.90
18281;DHT22;9266;51.132;17.062;2023-04-05T20:56:05;1.00;99.90
18281;DHT22;9266;51.132;17.062;2023-04-05T20:58:33;1.10;1.00
18281;DHT22;9266;51.132;17.062;2023-04-05T21:01:00;1.30;1.00
18281;DHT22;9266;51.132;17.062;2023-04-05T21:03:29;1.20;1.00
18281;DHT22;9266;51.132;17.062;2023-04-05T21:05:57;1.00;1.00
18281;DHT22;9266;51.132;17.062;2023-04-05T21:08:25;0.90;1.00
18281;DHT22;9266;51.132;17.062;2023-04-05T21:10:53;0.80;1.00
18281;DHT22;9266;51.132;17.062;2023-04-05T21:13:21;0.80;1.00
18281;DHT22;9266;51.132;17.062;2023-04-05T21:15:50;0.60;1.00
18281;DHT22;9266;51.132;17.062;2023-04-05T21:18:17;0.50;1.00
18281;DHT22;9266;51.132;17.062;2023-04-05T21:20:45;0.40;1.00
18281;DHT22;9266;51.132;17.062;2023-04-05T21:23:17;0.40;16.00
18281;DHT22;9266;51.132;17.062;2023-04-05T21:25:45;0.40;56.70
18281;DHT22;9266;51.132;17.062;2023-04-05T21:28:13;0.30;99.90
18281;DHT22;9266;51.132;17.062;2023-04-05T21:30:41;0.40;99.90
18281;DHT22;9266;51.132;17.062;2023-04-05T21:33:08;0.40;99.90